sensor_id;sensor_type;location;lat;lon;timestamp;temperature;humidity
31003;DHT22;23051;-6.372;106.786;2023-10-31T00:00:10;29.20;66.20
31003;DHT22;23051;-6.372;106.786;2023-10-31T00:02:17;29.20;66.10
31003;DHT22;23051;-6.372;106.786;2023-10-31T00:04:19;29.20;66.10
31003;DHT22;23051;-6.372;106.786;2023-10-31T00:06:23;29.30;66.10
31003;DHT22;23051;-6.372;106.786;2023-10-31T00:08:24;29.30;66.10
31003;DHT22;23051;-6.372;106.786;2023-10-31T00:10:26;29.30;66.10
31003;DHT22;23051;-6.372;106.786;2023-10-31T00:12:30;29.30;66.10
31003;DHT22;23051;-6.372;106.786;2023-10-31T00:14:32;29.30;66.00
31003;DHT22;23051;-6.372;106.786;2023-10-31T00:16:33;29.40;66.00
31003;DHT22;23051;-6.372;106.786;2023-10-31T00:18:35;29.40;66.00
31003;DHT22;23051;-6.372;106.786;2023-10-31T00:20:41;29.40;65.90
31003;DHT22;23051;-6.372;106.786;2023-10-31T00:22:47;29.50;65.90
31003;DHT22;23051;-6.372;106.786;2023-10-31T00:24:51;29.50;65.80
31003;DHT22;23051;-6.372;106.786;2023-10-31T00:29:16;29.50;65.70
31003;DHT22;23051;-6.372;106.786;2023-10-31T00:31:18;29.60;65.80
31003;DHT22;23051;-6.372;106.786;2023-10-31T00:33:20;29.60;65.70
31003;DHT22;23051;-6.372;106.786;2023-10-31T00:35:21;29.60;65.70
31003;DHT22;23051;-6.372;106.786;2023-10-31T00:37:25;29.70;65.60
31003;DHT22;23051;-6.372;106.786;2023-10-31T00:39:27;29.70;65.60
31003;DHT22;23051;-6.372;106.786;2023-10-31T00:41:28;29.70;65.50
31003;DHT22;23051;-6.372;106.786;2023-10-31T00:43:32;29.80;65.50
31003;DHT22;23051;-6.372;106.786;2023-10-31T00:45:36;29.80;65.40
31003;DHT22;23051;-6.372;106.786;2023-10-31T00:47:38;29.90;65.40
31003;DHT22;23051;-6.372;106.786;2023-10-31T00:49:39;29.90;65.40
31003;DHT22;23051;-6.372;106.786;2023-10-31T00:51:43;30.00;65.40
31003;DHT22;23051;-6.372;106.786;2023-10-31T00:53:45;30.00;65.40
31003;DHT22;23051;-6.372;106.786;2023-10-31T00:55:47;30.00;65.30
31003;DHT22;23051;-6.372;106.786;2023-10-31T00:57:51;30.00;65.20
31003;DHT22;23051;-6.372;106.786;2023-10-31T00:59:52;30.10;65.20
31003;DHT22;23051;-6.372;106.786;2023-10-31T01:01:56;30.10;65.20
31003;DHT22;23051;-6.372;106.786;2023-10-31T01:03:58;30.10;65.10
31003;DHT22;23051;-6.372;106.786;2023-10-31T01:06:02;30.20;65.10
31003;DHT22;23051;-6.372;106.786;2023-10-31T01:08:04;30.20;65.00
31003;DHT22;23051;-6.372;106.786;2023-10-31T01:10:10;30.30;65.00
31003;DHT22;23051;-6.372;106.786;2023-10-31T01:12:12;30.30;64.90
31003;DHT22;23051;-6.372;106.786;2023-10-31T01:14:16;30.30;64.90
31003;DHT22;23051;-6.372;106.786;2023-10-31T01:16:20;30.40;65.00
31003;DHT22;23051;-6.372;106.786;2023-10-31T01:18:21;30.40;64.90
31003;DHT22;23051;-6.372;106.786;2023-10-31T01:20:23;30.50;64.90
31003;DHT22;23051;-6.372;106.786;2023-10-31T01:22:30;30.50;64.80
31003;DHT22;23051;-6.372;106.786;2023-10-31T01:24:34;30.50;64.80
31003;DHT22;23051;-6.372;106.786;2023-10-31T01:26:38;30.50;64.70
31003;DHT22;23051;-6.372;106.786;2023-10-31T01:28:42;30.60;64.80
31003;DHT22;23051;-6.372;106.786;2023-10-31T01:30:43;30.60;64.70
31003;DHT22;23051;-6.372;106.786;2023-10-31T01:32:47;30.70;64.70
31003;DHT22;23051;-6.372;106.786;2023-10-31T01:34:49;30.70;64.60
31003;DHT22;23051;-6.372;106.786;2023-10-31T01:36:51;30.80;64.60
31003;DHT22;23051;-6.372;106.786;2023-10-31T01:38:55;30.80;64.50
31003;DHT22;23051;-6.372;106.786;2023-10-31T01:43:09;30.90;64.40
31003;DHT22;23051;-6.372;106.786;2023-10-31T01:45:11;30.90;64.30
31003;DHT22;23051;-6.372;106.786;2023-10-31T01:47:13;31.00;64.30
31003;DHT22;23051;-6.372;106.786;2023-10-31T01:49:15;31.00;64.30
31003;DHT22;23051;-6.372;106.786;2023-10-31T01:51:21;31.10;64.20
31003;DHT22;23051;-6.372;106.786;2023-10-31T01:53:26;31.10;64.20
31003;DHT22;23051;-6.372;106.786;2023-10-31T01:55:29;31.10;64.20
31003;DHT22;23051;-6.372;106.786;2023-10-31T01:57:31;31.20;64.20
31003;DHT22;23051;-6.372;106.786;2023-10-31T01:59:33;31.30;64.10
31003;DHT22;23051;-6.372;106.786;2023-10-31T02:01:41;31.40;63.90
31003;DHT22;23051;-6.372;106.786;2023-10-31T02:03:48;31.40;63.70
31003;DHT22;23051;-6.372;106.786;2023-10-31T02:05:51;31.50;63.70
31003;DHT22;23051;-6.372;106.786;2023-10-31T02:07:57;31.70;63.50
31003;DHT22;23051;-6.372;106.786;2023-10-31T02:09:59;31.70;63.30
31003;DHT22;23051;-6.372;106.786;2023-10-31T02:12:07;31.90;63.10
31003;DHT22;23051;-6.372;106.786;2023-10-31T02:14:09;32.10;62.90
31003;DHT22;23051;-6.372;106.786;2023-10-31T02:16:11;32.20;62.70
31003;DHT22;23051;-6.372;106.786;2023-10-31T02:18:15;32.20;62.60
31003;DHT22;23051;-6.372;106.786;2023-10-31T02:20:22;32.10;62.70
31003;DHT22;23051;-6.372;106.786;2023-10-31T02:22:24;32.20;62.90
31003;DHT22;23051;-6.372;106.786;2023-10-31T02:24:26;32.10;62.80
31003;DHT22;23051;-6.372;106.786;2023-10-31T02:26:35;32.20;62.80
31003;DHT22;23051;-6.372;106.786;2023-10-31T02:28:38;32.30;62.60
31003;DHT22;23051;-6.372;106.786;2023-10-31T02:30:43;32.40;62.50
31003;DHT22;23051;-6.372;106.786;2023-10-31T02:32:46;32.40;62.30
31003;DHT22;23051;-6.372;106.786;2023-10-31T02:34:52;32.60;62.30
31003;DHT22;23051;-6.372;106.786;2023-10-31T02:36:57;32.60;62.10
31003;DHT22;23051;-6.372;106.786;2023-10-31T02:38:58;32.60;62.00
31003;DHT22;23051;-6.372;106.786;2023-10-31T02:41:00;32.70;62.10
31003;DHT22;23051;-6.372;106.786;2023-10-31T02:43:04;32.60;62.00
31003;DHT22;23051;-6.372;106.786;2023-10-31T02:45:06;32.70;62.10
31003;DHT22;23051;-6.372;106.786;2023-10-31T02:47:11;32.70;62.00
31003;DHT22;23051;-6.372;106.786;2023-10-31T02:49:13;32.80;62.00
31003;DHT22;23051;-6.372;106.786;2023-10-31T02:51:14;32.80;61.90
31003;DHT22;23051;-6.372;106.786;2023-10-31T02:53:21;32.80;61.90
31003;DHT22;23051;-6.372;106.786;2023-10-31T02:55:22;32.90;61.80
31003;DHT22;23051;-6.372;106.786;2023-10-31T02:57:26;33.00;61.80
31003;DHT22;23051;-6.372;106.786;2023-10-31T02:59:28;33.00;61.70
31003;DHT22;23051;-6.372;106.786;2023-10-31T03:01:30;33.20;61.50
31003;DHT22;23051;-6.372;106.786;2023-10-31T03:03:32;33.20;61.30
31003;DHT22;23051;-6.372;106.786;2023-10-31T03:05:36;33.30;61.30
31003;DHT22;23051;-6.372;106.786;2023-10-31T03:07:40;33.30;61.10
31003;DHT22;23051;-6.372;106.786;2023-10-31T03:09:44;33.30;61.10
31003;DHT22;23051;-6.372;106.786;2023-10-31T03:11:46;33.30;61.20
31003;DHT22;23051;-6.372;106.786;2023-10-31T03:13:50;33.30;61.40
31003;DHT22;23051;-6.372;106.786;2023-10-31T03:15:54;33.30;61.40
31003;DHT22;23051;-6.372;106.786;2023-10-31T03:17:56;33.30;61.30
31003;DHT22;23051;-6.372;106.786;2023-10-31T03:19:59;33.50;61.30
31003;DHT22;23051;-6.372;106.786;2023-10-31T03:22:00;33.60;61.00
31003;DHT22;23051;-6.372;106.786;2023-10-31T03:24:05;33.80;60.80
31003;DHT22;23051;-6.372;106.786;2023-10-31T03:30:42;34.20;59.90
31003;DHT22;23051;-6.372;106.786;2023-10-31T03:32:44;34.20;59.80
31003;DHT22;23051;-6.372;106.786;2023-10-31T03:35:07;34.40;59.80
31003;DHT22;23051;-6.372;106.786;2023-10-31T03:37:13;34.40;59.70
31003;DHT22;23051;-6.372;106.786;2023-10-31T03:39:15;34.40;59.70
31003;DHT22;23051;-6.372;106.786;2023-10-31T03:41:29;34.40;59.80
31003;DHT22;23051;-6.372;106.786;2023-10-31T03:43:31;34.30;59.80
31003;DHT22;23051;-6.372;106.786;2023-10-31T03:45:35;34.20;60.10
31003;DHT22;23051;-6.372;106.786;2023-10-31T03:47:39;34.10;60.40
31003;DHT22;23051;-6.372;106.786;2023-10-31T03:49:43;34.10;60.50
31003;DHT22;23051;-6.372;106.786;2023-10-31T03:51:45;34.10;60.30
31003;DHT22;23051;-6.372;106.786;2023-10-31T03:53:53;34.20;60.20
31003;DHT22;23051;-6.372;106.786;2023-10-31T03:55:59;34.30;60.10
31003;DHT22;23051;-6.372;106.786;2023-10-31T03:58:01;34.20;60.00
31003;DHT22;23051;-6.372;106.786;2023-10-31T04:00:03;34.20;60.20
31003;DHT22;23051;-6.372;106.786;2023-10-31T04:02:10;34.30;60.20
31003;DHT22;23051;-6.372;106.786;2023-10-31T04:04:11;34.30;60.10
31003;DHT22;23051;-6.372;106.786;2023-10-31T04:06:13;34.40;60.00
31003;DHT22;23051;-6.372;106.786;2023-10-31T04:08:17;34.40;59.80
31003;DHT22;23051;-6.372;106.786;2023-10-31T04:10:19;34.50;59.80
31003;DHT22;23051;-6.372;106.786;2023-10-31T04:12:23;34.50;59.70
31003;DHT22;23051;-6.372;106.786;2023-10-31T04:14:33;34.50;59.70
31003;DHT22;23051;-6.372;106.786;2023-10-31T04:16:39;34.60;59.50
31003;DHT22;23051;-6.372;106.786;2023-10-31T04:18:46;34.80;59.40
31003;DHT22;23051;-6.372;106.786;2023-10-31T04:20:50;34.80;59.30
31003;DHT22;23051;-6.372;106.786;2023-10-31T04:22:54;34.90;59.30
31003;DHT22;23051;-6.372;106.786;2023-10-31T04:24:56;34.90;59.20
31003;DHT22;23051;-6.372;106.786;2023-10-31T04:26:57;35.00;59.10
31003;DHT22;23051;-6.372;106.786;2023-10-31T04:29:03;35.00;59.10
31003;DHT22;23051;-6.372;106.786;2023-10-31T04:31:05;35.10;59.70
31003;DHT22;23051;-6.372;106.786;2023-10-31T04:33:06;35.10;58.90
31003;DHT22;23051;-6.372;106.786;2023-10-31T04:35:08;35.20;58.80
31003;DHT22;23051;-6.372;106.786;2023-10-31T04:37:14;35.30;58.70
31003;DHT22;23051;-6.372;106.786;2023-10-31T04:39:18;35.40;58.50
31003;DHT22;23051;-6.372;106.786;2023-10-31T04:41:22;35.50;58.30
31003;DHT22;23051;-6.372;106.786;2023-10-31T04:43:28;35.60;58.20
31003;DHT22;23051;-6.372;106.786;2023-10-31T04:45:30;35.70;58.10
31003;DHT22;23051;-6.372;106.786;2023-10-31T04:49:35;35.70;58.20
31003;DHT22;23051;-6.372;106.786;2023-10-31T04:51:37;35.70;58.10
31003;DHT22;23051;-6.372;106.786;2023-10-31T04:53:39;35.60;58.10
31003;DHT22;23051;-6.372;106.786;2023-10-31T04:55:40;35.60;58.30
31003;DHT22;23051;-6.372;106.786;2023-10-31T04:57:42;35.50;58.30
31003;DHT22;23051;-6.372;106.786;2023-10-31T04:59:44;35.50;58.50
31003;DHT22;23051;-6.372;106.786;2023-10-31T05:01:53;35.40;58.60
31003;DHT22;23051;-6.372;106.786;2023-10-31T05:03:56;35.40;58.60
31003;DHT22;23051;-6.372;106.786;2023-10-31T05:06:03;35.40;58.60
31003;DHT22;23051;-6.372;106.786;2023-10-31T05:08:09;35.50;58.60
31003;DHT22;23051;-6.372;106.786;2023-10-31T05:10:13;35.50;59.20
31003;DHT22;23051;-6.372;106.786;2023-10-31T05:12:17;35.50;58.60
31003;DHT22;23051;-6.372;106.786;2023-10-31T05:14:21;35.40;58.50
31003;DHT22;23051;-6.372;106.786;2023-10-31T05:16:24;35.50;58.60
31003;DHT22;23051;-6.372;106.786;2023-10-31T05:18:26;35.60;58.40
31003;DHT22;23051;-6.372;106.786;2023-10-31T05:20:33;35.70;58.20
31003;DHT22;23051;-6.372;106.786;2023-10-31T05:22:37;35.70;58.10
31003;DHT22;23051;-6.372;106.786;2023-10-31T05:24:41;35.20;58.70
31003;DHT22;23051;-6.372;106.786;2023-10-31T05:26:42;34.60;59.70
31003;DHT22;23051;-6.372;106.786;2023-10-31T05:28:46;34.40;60.50
31003;DHT22;23051;-6.372;106.786;2023-10-31T05:30:48;34.50;60.60
31003;DHT22;23051;-6.372;106.786;2023-10-31T05:32:52;34.60;60.40
31003;DHT22;23051;-6.372;106.786;2023-10-31T05:34:53;34.70;60.20
31003;DHT22;23051;-6.372;106.786;2023-10-31T05:36:57;34.80;60.10
31003;DHT22;23051;-6.372;106.786;2023-10-31T05:39:01;34.80;59.90
31003;DHT22;23051;-6.372;106.786;2023-10-31T05:41:03;34.90;59.80
31003;DHT22;23051;-6.372;106.786;2023-10-31T05:43:11;35.00;60.40
31003;DHT22;23051;-6.372;106.786;2023-10-31T05:45:13;35.10;59.50
31003;DHT22;23051;-6.372;106.786;2023-10-31T05:47:17;35.20;59.40
31003;DHT22;23051;-6.372;106.786;2023-10-31T05:51:21;35.30;59.20
31003;DHT22;23051;-6.372;106.786;2023-10-31T05:53:26;35.40;59.00
31003;DHT22;23051;-6.372;106.786;2023-10-31T05:55:31;35.50;58.90
31003;DHT22;23051;-6.372;106.786;2023-10-31T05:57:35;35.50;58.80
31003;DHT22;23051;-6.372;106.786;2023-10-31T05:59:37;35.40;58.80
31003;DHT22;23051;-6.372;106.786;2023-10-31T06:01:41;35.50;58.80
31003;DHT22;23051;-6.372;106.786;2023-10-31T06:03:47;35.50;58.80
31003;DHT22;23051;-6.372;106.786;2023-10-31T06:05:51;35.50;58.70
31003;DHT22;23051;-6.372;106.786;2023-10-31T06:07:52;35.60;58.60
31003;DHT22;23051;-6.372;106.786;2023-10-31T06:09:56;35.70;58.40
31003;DHT22;23051;-6.372;106.786;2023-10-31T06:11:58;35.80;58.30
31003;DHT22;23051;-6.372;106.786;2023-10-31T06:13:59;35.80;58.30
31003;DHT22;23051;-6.372;106.786;2023-10-31T06:16:01;35.70;58.40
31003;DHT22;23051;-6.372;106.786;2023-10-31T06:18:03;35.60;58.40
31003;DHT22;23051;-6.372;106.786;2023-10-31T06:20:08;35.50;58.60
31003;DHT22;23051;-6.372;106.786;2023-10-31T06:22:12;35.40;58.90
31003;DHT22;23051;-6.372;106.786;2023-10-31T06:24:16;35.30;59.10
31003;DHT22;23051;-6.372;106.786;2023-10-31T06:26:18;35.20;59.30
31003;DHT22;23051;-6.372;106.786;2023-10-31T06:28:22;35.00;59.40
31003;DHT22;23051;-6.372;106.786;2023-10-31T06:30:27;35.00;60.30
31003;DHT22;23051;-6.372;106.786;2023-10-31T06:32:33;34.90;59.60
31003;DHT22;23051;-6.372;106.786;2023-10-31T06:34:34;34.90;60.40
31003;DHT22;23051;-6.372;106.786;2023-10-31T06:36:36;34.90;59.70
31003;DHT22;23051;-6.372;106.786;2023-10-31T06:38:40;34.90;59.70
31003;DHT22;23051;-6.372;106.786;2023-10-31T06:40:46;35.00;59.60
31003;DHT22;23051;-6.372;106.786;2023-10-31T06:42:53;35.10;59.40
31003;DHT22;23051;-6.372;106.786;2023-10-31T06:44:56;35.20;59.20
31003;DHT22;23051;-6.372;106.786;2023-10-31T06:47:00;35.40;59.00
31003;DHT22;23051;-6.372;106.786;2023-10-31T06:49:01;35.40;58.90
31003;DHT22;23051;-6.372;106.786;2023-10-31T06:51:06;35.50;58.70
31003;DHT22;23051;-6.372;106.786;2023-10-31T06:53:10;35.60;58.60
31003;DHT22;23051;-6.372;106.786;2023-10-31T06:55:12;35.80;58.40
31003;DHT22;23051;-6.372;106.786;2023-10-31T06:57:18;36.00;58.20
31003;DHT22;23051;-6.372;106.786;2023-10-31T06:59:20;36.00;57.90
31003;DHT22;23051;-6.372;106.786;2023-10-31T07:01:24;36.10;57.90
31003;DHT22;23051;-6.372;106.786;2023-10-31T07:03:26;36.10;57.90
31003;DHT22;23051;-6.372;106.786;2023-10-31T07:05:27;36.10;57.90
31003;DHT22;23051;-6.372;106.786;2023-10-31T07:07:32;36.10;57.90
31003;DHT22;23051;-6.372;106.786;2023-10-31T07:09:38;36.20;57.80
31003;DHT22;23051;-6.372;106.786;2023-10-31T07:11:39;36.20;57.70
31003;DHT22;23051;-6.372;106.786;2023-10-31T07:13:46;36.20;57.70
31003;DHT22;23051;-6.372;106.786;2023-10-31T07:15:48;36.20;57.90
31003;DHT22;23051;-6.372;106.786;2023-10-31T07:17:49;36.10;58.10
31003;DHT22;23051;-6.372;106.786;2023-10-31T07:19:55;36.00;58.30
31003;DHT22;23051;-6.372;106.786;2023-10-31T07:22:00;35.90;58.40
31003;DHT22;23051;-6.372;106.786;2023-10-31T07:24:02;35.90;58.40
31003;DHT22;23051;-6.372;106.786;2023-10-31T07:26:09;36.00;58.40
31003;DHT22;23051;-6.372;106.786;2023-10-31T07:28:13;36.10;58.30
31003;DHT22;23051;-6.372;106.786;2023-10-31T07:30:17;36.10;58.10
31003;DHT22;23051;-6.372;106.786;2023-10-31T07:32:21;36.20;58.10
31003;DHT22;23051;-6.372;106.786;2023-10-31T07:34:28;36.30;58.00
31003;DHT22;23051;-6.372;106.786;2023-10-31T07:36:30;36.30;57.80
31003;DHT22;23051;-6.372;106.786;2023-10-31T07:38:34;36.40;57.70
31003;DHT22;23051;-6.372;106.786;2023-10-31T07:40:36;36.50;57.70
31003;DHT22;23051;-6.372;106.786;2023-10-31T07:42:40;36.60;57.50
31003;DHT22;23051;-6.372;106.786;2023-10-31T07:44:44;36.60;57.30
31003;DHT22;23051;-6.372;106.786;2023-10-31T07:46:46;36.80;57.30
31003;DHT22;23051;-6.372;106.786;2023-10-31T07:48:47;36.80;57.20
31003;DHT22;23051;-6.372;106.786;2023-10-31T07:50:51;36.90;57.10
31003;DHT22;23051;-6.372;106.786;2023-10-31T07:52:55;37.00;57.10
31003;DHT22;23051;-6.372;106.786;2023-10-31T07:54:59;37.00;56.90
31003;DHT22;23051;-6.372;106.786;2023-10-31T07:57:03;37.10;56.80
31003;DHT22;23051;-6.372;106.786;2023-10-31T07:59:12;37.10;56.90
31003;DHT22;23051;-6.372;106.786;2023-10-31T08:01:22;37.10;57.00
31003;DHT22;23051;-6.372;106.786;2023-10-31T08:03:26;36.90;57.10
31003;DHT22;23051;-6.372;106.786;2023-10-31T08:05:27;36.80;57.30
31003;DHT22;23051;-6.372;106.786;2023-10-31T08:07:31;36.70;57.50
31003;DHT22;23051;-6.372;106.786;2023-10-31T08:09:33;36.70;57.60
31003;DHT22;23051;-6.372;106.786;2023-10-31T08:11:37;36.60;57.70
31003;DHT22;23051;-6.372;106.786;2023-10-31T08:13:41;36.50;57.90
31003;DHT22;23051;-6.372;106.786;2023-10-31T08:15:44;36.10;58.40
31003;DHT22;23051;-6.372;106.786;2023-10-31T08:17:49;35.90;58.80
31003;DHT22;23051;-6.372;106.786;2023-10-31T08:19:50;35.80;59.20
31003;DHT22;23051;-6.372;106.786;2023-10-31T08:21:54;35.60;59.30
31003;DHT22;23051;-6.372;106.786;2023-10-31T08:23:57;35.70;59.20
31003;DHT22;23051;-6.372;106.786;2023-10-31T08:26:01;35.90;58.90
31003;DHT22;23051;-6.372;106.786;2023-10-31T08:28:03;36.30;58.10
31003;DHT22;23051;-6.372;106.786;2023-10-31T08:30:05;36.80;57.40
31003;DHT22;23051;-6.372;106.786;2023-10-31T08:32:07;37.10;56.80
31003;DHT22;23051;-6.372;106.786;2023-10-31T08:34:08;37.40;56.20
31003;DHT22;23051;-6.372;106.786;2023-10-31T08:36:12;37.60;55.80
31003;DHT22;23051;-6.372;106.786;2023-10-31T08:38:19;37.40;55.70
31003;DHT22;23051;-6.372;106.786;2023-10-31T08:40:22;37.00;56.40
31003;DHT22;23051;-6.372;106.786;2023-10-31T08:42:24;36.50;57.30
31003;DHT22;23051;-6.372;106.786;2023-10-31T08:44:28;36.10;58.10
31003;DHT22;23051;-6.372;106.786;2023-10-31T08:46:29;35.70;58.70
31003;DHT22;23051;-6.372;106.786;2023-10-31T08:48:31;35.40;59.10
31003;DHT22;23051;-6.372;106.786;2023-10-31T08:50:33;35.30;59.60
31003;DHT22;23051;-6.372;106.786;2023-10-31T08:52:43;35.20;59.70
31003;DHT22;23051;-6.372;106.786;2023-10-31T08:54:45;35.40;59.50
31003;DHT22;23051;-6.372;106.786;2023-10-31T08:56:49;35.50;59.20
31003;DHT22;23051;-6.372;106.786;2023-10-31T08:58:53;35.50;59.20
31003;DHT22;23051;-6.372;106.786;2023-10-31T09:00:56;35.40;59.30
31003;DHT22;23051;-6.372;106.786;2023-10-31T09:03:03;35.30;59.50
31003;DHT22;23051;-6.372;106.786;2023-10-31T09:05:08;35.10;59.80
31003;DHT22;23051;-6.372;106.786;2023-10-31T09:07:14;34.90;59.90
31003;DHT22;23051;-6.372;106.786;2023-10-31T09:09:15;34.90;60.20
31003;DHT22;23051;-6.372;106.786;2023-10-31T09:11:17;34.70;60.40
31003;DHT22;23051;-6.372;106.786;2023-10-31T09:13:22;34.60;60.60
31003;DHT22;23051;-6.372;106.786;2023-10-31T09:15:26;34.50;60.80
31003;DHT22;23051;-6.372;106.786;2023-10-31T09:17:32;34.40;61.00
31003;DHT22;23051;-6.372;106.786;2023-10-31T09:19:36;34.30;61.10
31003;DHT22;23051;-6.372;106.786;2023-10-31T09:21:42;34.20;61.30
31003;DHT22;23051;-6.372;106.786;2023-10-31T09:23:46;34.20;61.30
31003;DHT22;23051;-6.372;106.786;2023-10-31T09:25:48;34.20;61.30
31003;DHT22;23051;-6.372;106.786;2023-10-31T09:27:49;34.20;61.30
31003;DHT22;23051;-6.372;106.786;2023-10-31T09:29:53;34.20;61.10
31003;DHT22;23051;-6.372;106.786;2023-10-31T09:31:54;34.30;61.00
31003;DHT22;23051;-6.372;106.786;2023-10-31T09:33:58;34.40;60.70
31003;DHT22;23051;-6.372;106.786;2023-10-31T09:35:59;34.40;60.40
31003;DHT22;23051;-6.372;106.786;2023-10-31T09:38:02;34.40;60.50
31003;DHT22;23051;-6.372;106.786;2023-10-31T09:40:07;34.30;60.60
31003;DHT22;23051;-6.372;106.786;2023-10-31T09:42:12;34.10;61.60
31003;DHT22;23051;-6.372;106.786;2023-10-31T09:44:14;34.00;61.00
31003;DHT22;23051;-6.372;106.786;2023-10-31T09:46:16;33.90;61.40
31003;DHT22;23051;-6.372;106.786;2023-10-31T09:48:20;33.70;61.50
31003;DHT22;23051;-6.372;106.786;2023-10-31T09:50:22;33.60;61.60
31003;DHT22;23051;-6.372;106.786;2023-10-31T09:52:26;33.60;61.90
31003;DHT22;23051;-6.372;106.786;2023-10-31T09:54:28;33.40;62.00
31003;DHT22;23051;-6.372;106.786;2023-10-31T09:56:38;33.40;62.20
31003;DHT22;23051;-6.372;106.786;2023-10-31T09:58:48;33.40;62.30
31003;DHT22;23051;-6.372;106.786;2023-10-31T10:00:50;33.40;62.10
31003;DHT22;23051;-6.372;106.786;2023-10-31T10:02:53;33.40;62.80
31003;DHT22;23051;-6.372;106.786;2023-10-31T10:05:02;33.30;62.10
31003;DHT22;23051;-6.372;106.786;2023-10-31T10:07:07;33.20;62.30
31003;DHT22;23051;-6.372;106.786;2023-10-31T10:09:13;33.10;62.40
31003;DHT22;23051;-6.372;106.786;2023-10-31T10:11:21;33.10;62.30
31003;DHT22;23051;-6.372;106.786;2023-10-31T10:13:27;33.00;62.30
31003;DHT22;23051;-6.372;106.786;2023-10-31T10:15:46;32.90;62.50
31003;DHT22;23051;-6.372;106.786;2023-10-31T10:18:07;32.80;62.70
31003;DHT22;23051;-6.372;106.786;2023-10-31T10:20:18;32.70;62.90
31003;DHT22;23051;-6.372;106.786;2023-10-31T10:22:20;32.60;63.20
31003;DHT22;23051;-6.372;106.786;2023-10-31T10:24:23;32.50;63.30
31003;DHT22;23051;-6.372;106.786;2023-10-31T10:26:27;32.40;63.40
31003;DHT22;23051;-6.372;106.786;2023-10-31T10:28:31;32.40;63.60
31003;DHT22;23051;-6.372;106.786;2023-10-31T10:30:35;32.30;63.80
31003;DHT22;23051;-6.372;106.786;2023-10-31T10:32:39;32.10;64.00
31003;DHT22;23051;-6.372;106.786;2023-10-31T10:34:42;32.00;64.40
31003;DHT22;23051;-6.372;106.786;2023-10-31T10:36:48;31.80;64.60
31003;DHT22;23051;-6.372;106.786;2023-10-31T10:38:57;31.70;64.80
31003;DHT22;23051;-6.372;106.786;2023-10-31T10:41:02;31.70;64.90
31003;DHT22;23051;-6.372;106.786;2023-10-31T10:43:13;31.70;64.90
31003;DHT22;23051;-6.372;106.786;2023-10-31T10:45:22;31.60;64.90
31003;DHT22;23051;-6.372;106.786;2023-10-31T10:47:24;31.50;64.90
31003;DHT22;23051;-6.372;106.786;2023-10-31T10:49:29;31.50;65.00
31003;DHT22;23051;-6.372;106.786;2023-10-31T10:55:57;32.10;63.60
31003;DHT22;23051;-6.372;106.786;2023-10-31T11:00:08;32.50;62.60
31003;DHT22;23051;-6.372;106.786;2023-10-31T11:02:16;32.70;62.40
31003;DHT22;23051;-6.372;106.786;2023-10-31T11:04:19;32.80;62.10
31003;DHT22;23051;-6.372;106.786;2023-10-31T11:06:29;32.90;61.80
31003;DHT22;23051;-6.372;106.786;2023-10-31T11:08:36;33.00;61.50
31003;DHT22;23051;-6.372;106.786;2023-10-31T11:10:41;33.10;61.40
31003;DHT22;23051;-6.372;106.786;2023-10-31T11:12:45;33.20;61.10
31003;DHT22;23051;-6.372;106.786;2023-10-31T11:14:46;33.20;61.00
31003;DHT22;23051;-6.372;106.786;2023-10-31T11:16:55;33.20;61.10
31003;DHT22;23051;-6.372;106.786;2023-10-31T11:18:57;33.10;61.20
31003;DHT22;23051;-6.372;106.786;2023-10-31T11:21:01;33.10;61.30
31003;DHT22;23051;-6.372;106.786;2023-10-31T11:23:05;33.00;61.30
31003;DHT22;23051;-6.372;106.786;2023-10-31T11:25:12;33.00;61.30
31003;DHT22;23051;-6.372;106.786;2023-10-31T11:27:17;33.00;61.30
31003;DHT22;23051;-6.372;106.786;2023-10-31T11:29:21;33.00;61.30
31003;DHT22;23051;-6.372;106.786;2023-10-31T11:31:27;33.00;61.40
31003;DHT22;23051;-6.372;106.786;2023-10-31T11:33:33;33.00;61.40
31003;DHT22;23051;-6.372;106.786;2023-10-31T11:35:43;33.00;61.40
31003;DHT22;23051;-6.372;106.786;2023-10-31T11:37:48;33.00;61.30
31003;DHT22;23051;-6.372;106.786;2023-10-31T11:42:02;33.10;61.10
31003;DHT22;23051;-6.372;106.786;2023-10-31T11:44:18;33.20;61.10
31003;DHT22;23051;-6.372;106.786;2023-10-31T11:46:24;33.20;61.00
31003;DHT22;23051;-6.372;106.786;2023-10-31T11:50:48;33.20;61.00
31003;DHT22;23051;-6.372;106.786;2023-10-31T11:54:57;33.10;61.20
31003;DHT22;23051;-6.372;106.786;2023-10-31T11:57:01;33.00;61.30
31003;DHT22;23051;-6.372;106.786;2023-10-31T11:59:05;33.00;61.30
31003;DHT22;23051;-6.372;106.786;2023-10-31T12:01:13;33.00;61.40
31003;DHT22;23051;-6.372;106.786;2023-10-31T12:03:17;33.00;61.30
31003;DHT22;23051;-6.372;106.786;2023-10-31T12:05:21;33.10;61.20
31003;DHT22;23051;-6.372;106.786;2023-10-31T12:07:27;33.00;61.10
31003;DHT22;23051;-6.372;106.786;2023-10-31T12:09:50;33.00;61.10
31003;DHT22;23051;-6.372;106.786;2023-10-31T12:11:56;32.80;61.50
31003;DHT22;23051;-6.372;106.786;2023-10-31T12:14:02;32.50;62.10
31003;DHT22;23051;-6.372;106.786;2023-10-31T12:16:09;32.30;62.60
31003;DHT22;23051;-6.372;106.786;2023-10-31T12:18:14;32.00;63.00
31003;DHT22;23051;-6.372;106.786;2023-10-31T12:20:16;31.80;63.40
31003;DHT22;23051;-6.372;106.786;2023-10-31T12:22:17;31.70;63.80
31003;DHT22;23051;-6.372;106.786;2023-10-31T12:24:22;31.60;64.10
31003;DHT22;23051;-6.372;106.786;2023-10-31T12:26:26;31.50;64.20
31003;DHT22;23051;-6.372;106.786;2023-10-31T12:28:28;31.40;64.30
31003;DHT22;23051;-6.372;106.786;2023-10-31T12:30:32;31.40;64.40
31003;DHT22;23051;-6.372;106.786;2023-10-31T12:32:33;31.30;64.30
31003;DHT22;23051;-6.372;106.786;2023-10-31T12:34:43;31.30;64.50
31003;DHT22;23051;-6.372;106.786;2023-10-31T12:36:49;31.20;64.60
31003;DHT22;23051;-6.372;106.786;2023-10-31T12:38:51;31.10;64.70
31003;DHT22;23051;-6.372;106.786;2023-10-31T12:40:55;31.00;64.90
31003;DHT22;23051;-6.372;106.786;2023-10-31T12:42:58;31.00;65.00
31003;DHT22;23051;-6.372;106.786;2023-10-31T12:45:00;31.10;64.90
31003;DHT22;23051;-6.372;106.786;2023-10-31T12:47:02;31.30;64.50
31003;DHT22;23051;-6.372;106.786;2023-10-31T12:49:12;31.40;64.10
31003;DHT22;23051;-6.372;106.786;2023-10-31T12:51:17;31.60;63.70
31003;DHT22;23051;-6.372;106.786;2023-10-31T12:53:28;31.70;63.20
31003;DHT22;23051;-6.372;106.786;2023-10-31T12:57:36;32.00;62.60
31003;DHT22;23051;-6.372;106.786;2023-10-31T12:59:40;32.10;62.20
31003;DHT22;23051;-6.372;106.786;2023-10-31T13:01:46;32.30;62.10
31003;DHT22;23051;-6.372;106.786;2023-10-31T13:03:52;32.40;61.60
31003;DHT22;23051;-6.372;106.786;2023-10-31T13:05:55;32.60;61.20
31003;DHT22;23051;-6.372;106.786;2023-10-31T13:08:01;32.80;61.10